Time;durP1;ratioP1;P1;durP2;ratioP2;P2;SDS_P1;SDS_P2;PMS_P1;PMS_P2;Temp;Humidity;BMP_temperature;BMP_pressure;BME280_temperature;BME280_humidity;BME280_pressure;Samples;Min_cycle;Max_cycle;Signal;HPM_P1;HPM_P2
2023/01/30 00:01:17;;;;;;;15.23;4.13;;;9.40;99.90;;;;;;5050330;28;20207;-61
2023/01/30 00:03:43;;;;;;;22.87;3.80;;;9.40;99.90;;;;;;5050294;28;20173;-58
2023/01/30 00:06:09;;;;;;;18.73;3.20;;;9.40;99.90;;;;;;5050370;28;20585;-58
2023/01/30 00:08:35;;;;;;;22.37;3.50;;;9.60;99.90;;;;;;5050215;28;20204;-58
2023/01/30 00:11:05;;;;;;;17.03;2.73;;;9.50;99.90;;;;;;5050322;28;20647;-58
2023/01/30 00:13:32;;;;;;;22.63;3.13;;;9.50;99.90;;;;;;5050263;28;20173;-58
2023/01/30 00:15:57;;;;;;;14.47;3.43;;;9.40;99.90;;;;;;5050211;28;20170;-58
2023/01/30 00:18:23;;;;;;;28.23;3.17;;;9.60;99.90;;;;;;5050076;28;20575;-59
2023/01/30 00:20:58;;;;;;;14.80;2.87;;;9.40;99.90;;;;;;5049500;28;20668;-59
2023/01/30 00:23:25;;;;;;;21.97;3.33;;;9.40;99.90;;;;;;5049923;28;20180;-58
2023/01/30 00:25:51;;;;;;;25.90;2.80;;;9.50;99.90;;;;;;5049807;28;20631;-58
2023/01/30 00:28:16;;;;;;;17.90;2.67;;;9.20;99.90;;;;;;5049762;28;20176;-58
2023/01/30 00:30:42;;;;;;;27.10;3.13;;;9.70;99.90;;;;;;5035717;28;20257;-58
2023/01/30 00:33:09;;;;;;;15.13;2.57;;;9.40;99.90;;;;;;5053342;28;20562;-59
2023/01/30 00:35:35;;;;;;;18.53;2.90;;;9.40;99.90;;;;;;5053386;28;20201;-58
2023/01/30 00:38:00;;;;;;;18.67;2.50;;;9.50;99.90;;;;;;5053392;28;20228;-58
2023/01/30 00:40:27;;;;;;;23.13;3.17;;;9.40;99.90;;;;;;5053020;28;20212;-58
2023/01/30 00:48:24;;;;;;;14.20;2.40;;;9.50;99.90;;;;;;5054194;28;20191;-58
2023/01/30 00:50:50;;;;;;;34.00;3.40;;;9.60;99.90;;;;;;5047920;28;20370;-58
2023/01/30 00:53:16;;;;;;;19.90;3.07;;;9.50;99.90;;;;;;5051074;28;20201;-58
2023/01/30 00:55:42;;;;;;;19.73;4.13;;;9.40;99.90;;;;;;5052567;28;20644;-58
2023/01/30 00:58:08;;;;;;;15.57;2.83;;;;;;;;;;5053160;28;20603;-58
2023/01/30 01:00:34;;;;;;;20.93;2.90;;;9.50;99.90;;;;;;5053337;28;20170;-58
2023/01/30 01:03:00;;;;;;;15.40;2.87;;;9.50;99.90;;;;;;5053357;28;20664;-59
2023/01/30 01:05:26;;;;;;;21.20;3.30;;;9.60;99.90;;;;;;5053211;28;20244;-58
2023/01/30 01:07:52;;;;;;;17.93;3.10;;;9.60;99.90;;;;;;5053267;28;20169;-58
2023/01/30 01:10:18;;;;;;;20.37;2.57;;;9.60;99.90;;;;;;5053044;28;20181;-58
2023/01/30 01:12:45;;;;;;;19.73;3.00;;;9.60;99.90;;;;;;5053094;28;20184;-58
2023/01/30 01:15:12;;;;;;;16.13;2.43;;;9.60;99.90;;;;;;5053057;28;20177;-58
2023/01/30 01:17:39;;;;;;;13.83;2.10;;;9.60;99.90;;;;;;5053412;28;20256;-57
2023/01/30 01:20:05;;;;;;;13.37;2.73;;;9.60;99.90;;;;;;5052952;28;20208;-57
2023/01/30 01:22:31;;;;;;;27.53;2.43;;;9.60;99.90;;;;;;5053214;28;20181;-57
2023/01/30 01:24:57;;;;;;;17.33;2.50;;;9.70;99.90;;;;;;5052831;28;20718;-57
2023/01/30 01:27:22;;;;;;;14.17;2.10;;;9.60;99.90;;;;;;5052778;28;20181;-57
2023/01/30 01:29:48;;;;;;;14.80;1.97;;;9.70;99.90;;;;;;5052167;28;20264;-57
2023/01/30 01:32:14;;;;;;;9.10;2.07;;;9.60;99.90;;;;;;5052378;28;20238;-57
2023/01/30 01:34:39;;;;;;;16.07;2.57;;;9.70;99.90;;;;;;5052510;28;20228;-58
2023/01/30 01:37:05;;;;;;;13.53;2.33;;;9.60;99.90;;;;;;5052106;28;20225;-58
2023/01/30 01:42:15;;;;;;;12.80;2.10;;;9.70;99.90;;;;;;5052097;28;20299;-58
2023/01/30 01:45:03;;;;;;;10.03;2.13;;;9.70;99.90;;;;;;5052324;28;20326;-58
2023/01/30 01:47:30;;;;;;;15.57;2.17;;;9.70;99.90;;;;;;5052396;28;20231;-59
2023/01/30 01:49:56;;;;;;;9.03;2.13;;;9.50;99.90;;;;;;5052054;28;20181;-58
2023/01/30 01:52:22;;;;;;;16.33;3.43;;;;;;;;;;5051304;28;20258;-59
2023/01/30 01:55:08;;;;;;;14.40;2.20;;;9.60;99.90;;;;;;5051910;28;20195;-59
2023/01/30 01:57:50;;;;;;;11.93;2.17;;;9.60;99.90;;;;;;5051692;28;20219;-59
2023/01/30 02:00:18;;;;;;;15.23;2.10;;;9.50;99.90;;;;;;5050431;28;20252;-57
2023/01/30 02:02:50;;;;;;;15.77;2.87;;;9.40;99.90;;;;;;5050678;28;20200;-57
2023/01/30 02:05:18;;;;;;;21.27;3.87;;;9.60;99.90;;;;;;5051807;28;20741;-57
2023/01/30 02:07:51;;;;;;;14.37;3.33;;;9.50;99.90;;;;;;5048584;28;20206;-57
2023/01/30 02:10:23;;;;;;;13.17;2.70;;;9.80;99.90;;;;;;5050262;28;20193;-57
2023/01/30 02:12:50;;;;;;;20.60;3.50;;;9.50;99.90;;;;;;5049851;28;20189;-58
2023/01/30 02:15:17;;;;;;;11.77;3.40;;;9.70;99.90;;;;;;5051736;28;20183;-58
2023/01/30 02:17:42;;;;;;;20.57;3.73;;;9.60;99.90;;;;;;5051414;28;20249;-58
2023/01/30 02:20:35;;;;;;;19.23;3.87;;;9.40;99.90;;;;;;5033920;28;20213;-57
2023/01/30 02:23:20;;;;;;;22.50;3.83;;;9.70;99.90;;;;;;5051314;28;20176;-58
2023/01/30 02:26:17;;;;;;;14.47;4.17;;;9.80;99.90;;;;;;5051543;28;20256;-58
2023/01/30 02:29:04;;;;;;;19.43;3.87;;;9.70;99.90;;;;;;5051432;28;20177;-57
2023/01/30 02:31:51;;;;;;;17.53;4.20;;;9.70;99.90;;;;;;5051211;28;20173;-60
2023/01/30 02:34:34;;;;;;;22.57;5.23;;;9.70;99.90;;;;;;5051132;28;20278;-60
2023/01/30 02:37:33;;;;;;;17.77;5.03;;;9.70;99.90;;;;;;5050918;28;20219;-61
2023/01/30 02:40:31;;;;;;;15.97;4.57;;;9.40;99.90;;;;;;5051491;28;20205;-60
2023/01/30 02:43:21;;;;;;;20.67;5.20;;;9.70;99.90;;;;;;5051197;28;20248;-60
2023/01/30 02:46:01;;;;;;;20.77;4.90;;;9.70;99.90;;;;;;5051313;28;20205;-60
2023/01/30 02:48:41;;;;;;;15.80;4.90;;;9.70;99.90;;;;;;5051288;28;20647;-60
2023/01/30 02:51:21;;;;;;;25.00;5.10;;;9.80;99.90;;;;;;5050822;28;20165;-60
2023/01/30 02:53:48;;;;;;;20.10;5.67;;;9.70;99.90;;;;;;5050624;28;20180;-57
2023/01/30 02:56:14;;;;;;;20.97;5.63;;;9.80;99.90;;;;;;5050749;28;20169;-57
2023/01/30 02:58:47;;;;;;;20.70;5.10;;;9.80;99.90;;;;;;5050566;28;20219;-59
2023/01/30 03:01:33;;;;;;;18.70;5.10;;;9.60;99.90;;;;;;5050927;28;20181;-59
2023/01/30 03:04:01;;;;;;;16.77;6.43;;;9.90;99.90;;;;;;5007205;28;20200;-59
2023/01/30 03:06:36;;;;;;;20.20;6.17;;;9.90;99.90;;;;;;5048947;28;20631;-59
2023/01/30 03:09:02;;;;;;;18.80;5.17;;;;;;;;;;5049378;28;20200;-59
2023/01/30 03:11:58;;;;;;;21.10;5.23;;;10.00;99.90;;;;;;5049727;28;20184;-59
2023/01/30 03:14:40;;;;;;;20.93;5.97;;;10.00;99.90;;;;;;5049461;28;20185;-59
2023/01/30 03:17:08;;;;;;;21.43;5.43;;;9.90;99.90;;;;;;5050325;28;20235;-59
2023/01/30 03:19:33;;;;;;;21.47;5.60;;;10.00;99.90;;;;;;5050541;28;20192;-59
2023/01/30 03:21:59;;;;;;;22.07;5.40;;;9.90;99.90;;;;;;5050585;28;20181;-59
2023/01/30 03:24:25;;;;;;;19.77;5.37;;;10.00;99.90;;;;;;5050296;28;20185;-59
2023/01/30 03:26:57;;;;;;;20.40;5.17;;;10.00;99.90;;;;;;5050254;28;20207;-59
2023/01/30 03:29:22;;;;;;;23.03;4.83;;;10.30;99.90;;;;;;5032448;28;20268;-59
2023/01/30 03:31:48;;;;;;;21.10;4.70;;;10.20;99.90;;;;;;5032358;28;20296;-59
2023/01/30 03:34:14;;;;;;;24.17;5.80;;;10.00;99.90;;;;;;5050405;28;20303;-59
2023/01/30 03:36:40;;;;;;;17.17;4.90;;;10.00;99.90;;;;;;5049993;28;20272;-58
2023/01/30 03:39:05;;;;;;;19.93;5.57;;;10.00;99.90;;;;;;5050014;28;20189;-58
2023/01/30 03:41:31;;;;;;;19.13;5.70;;;7.90;99.90;;;;;;5050126;28;20177;-59
2023/01/30 03:43:57;;;;;;;20.93;5.17;;;;;;;;;;5050201;28;20620;-59
2023/01/30 03:46:22;;;;;;;20.73;5.27;;;10.00;99.90;;;;;;5049994;28;20624;-58
2023/01/30 03:48:49;;;;;;;28.83;5.63;;;;;;;;;;5050072;28;20173;-58
2023/01/30 03:51:14;;;;;;;19.13;4.97;;;9.80;99.90;;;;;;5050070;28;20177;-58
2023/01/30 03:53:40;;;;;;;20.77;5.10;;;9.80;99.90;;;;;;5050186;28;20392;-58
2023/01/30 03:56:05;;;;;;;20.93;4.53;;;9.70;99.90;;;;;;5050081;28;20315;-58
2023/01/30 03:58:31;;;;;;;28.80;5.03;;;9.50;99.90;;;;;;5049916;28;20213;-58
2023/01/30 04:00:57;;;;;;;23.10;5.03;;;9.50;99.90;;;;;;5049493;28;20177;-58
2023/01/30 04:03:23;;;;;;;20.67;4.43;;;9.50;99.90;;;;;;5050219;28;20631;-59
2023/01/30 04:05:48;;;;;;;17.67;4.73;;;9.40;99.90;;;;;;5053314;28;20180;-58
2023/01/30 04:08:14;;;;;;;16.93;3.77;;;9.30;99.90;;;;;;5040725;28;20543;-58
2023/01/30 04:10:40;;;;;;;13.40;4.17;;;9.30;99.90;;;;;;5048863;28;20647;-58
2023/01/30 04:13:05;;;;;;;12.37;3.40;;;9.20;99.90;;;;;;5054029;28;20611;-58
2023/01/30 04:15:31;;;;;;;17.57;4.80;;;9.30;99.90;;;;;;5054149;28;20628;-58
2023/01/30 04:17:57;;;;;;;15.83;3.73;;;9.20;99.90;;;;;;5053479;28;20675;-58
2023/01/30 04:20:23;;;;;;;13.30;3.23;;;9.40;99.90;;;;;;5053923;28;20177;-58
2023/01/30 04:22:49;;;;;;;13.23;2.97;;;9.00;99.90;;;;;;5054031;28;20173;-59
2023/01/30 04:25:15;;;;;;;20.63;3.07;;;9.00;99.90;;;;;;5053997;28;20172;-59
2023/01/30 04:27:40;;;;;;;20.33;3.10;;;8.90;99.90;;;;;;5053352;28;20210;-59
2023/01/30 04:30:06;;;;;;;8.97;2.23;;;8.80;99.90;;;;;;5054043;28;20649;-59
2023/01/30 04:32:32;;;;;;;14.93;2.83;;;8.70;99.90;;;;;;5053206;28;20219;-59
2023/01/30 04:34:58;;;;;;;14.47;2.67;;;8.60;99.90;;;;;;5053201;28;20229;-59
2023/01/30 04:37:23;;;;;;;14.47;2.77;;;8.50;99.90;;;;;;5053480;28;20233;-59
2023/01/30 04:39:49;;;;;;;14.83;2.13;;;8.40;99.90;;;;;;5053429;28;20208;-60
2023/01/30 04:42:14;;;;;;;8.73;2.03;;;8.40;99.90;;;;;;5053375;28;20213;-59
2023/01/30 04:44:40;;;;;;;16.53;2.40;;;8.40;99.90;;;;;;5052944;28;20584;-59
2023/01/30 04:47:06;;;;;;;14.60;2.40;;;8.30;99.90;;;;;;5053264;28;20177;-59
2023/01/30 04:49:31;;;;;;;25.13;2.77;;;8.20;99.90;;;;;;5053582;28;20575;-59
2023/01/30 04:51:57;;;;;;;13.73;2.23;;;7.90;99.90;;;;;;5035271;28;20219;-59
2023/01/30 04:54:22;;;;;;;18.77;2.77;;;8.20;99.90;;;;;;5053152;28;20177;-59
2023/01/30 04:56:48;;;;;;;18.37;2.80;;;8.00;99.90;;;;;;5053071;28;20181;-59
2023/01/30 04:59:14;;;;;;;19.23;3.03;;;7.90;99.90;;;;;;5053073;28;20186;-59
2023/01/30 05:01:40;;;;;;;18.00;2.27;;;7.80;99.90;;;;;;5053182;28;20178;-59
2023/01/30 05:04:06;;;;;;;18.57;2.60;;;7.70;99.90;;;;;;5052656;28;20260;-59
2023/01/30 05:06:33;;;;;;;21.33;2.37;;;7.60;99.90;;;;;;5046277;28;20205;-59
2023/01/30 05:08:59;;;;;;;17.20;2.87;;;7.60;99.90;;;;;;5052899;28;20176;-59
2023/01/30 05:11:26;;;;;;;18.20;2.47;;;7.50;99.90;;;;;;5052535;28;20173;-59
2023/01/30 05:13:52;;;;;;;19.27;2.50;;;7.50;99.90;;;;;;5052853;28;20256;-59
2023/01/30 05:16:18;;;;;;;20.70;2.37;;;7.40;99.90;;;;;;5052210;28;20703;-59
2023/01/30 05:18:45;;;;;;;14.63;2.50;;;;;;;;;;5052586;28;20610;-59
2023/01/30 05:21:19;;;;;;;12.87;2.70;;;7.20;99.90;;;;;;5052588;28;20268;-59
2023/01/30 05:23:45;;;;;;;21.60;2.83;;;7.00;99.90;;;;;;5052598;28;20204;-59
2023/01/30 05:26:12;;;;;;;18.77;2.57;;;7.10;99.90;;;;;;5052188;28;20252;-59
2023/01/30 05:28:38;;;;;;;19.93;3.20;;;7.20;99.90;;;;;;5052283;28;20261;-59
2023/01/30 05:31:06;;;;;;;18.03;2.30;;;7.10;99.90;;;;;;5052527;28;20292;-59
2023/01/30 05:33:32;;;;;;;19.30;2.73;;;7.00;99.90;;;;;;5051821;28;20217;-60
2023/01/30 05:35:58;;;;;;;18.87;2.50;;;7.00;99.90;;;;;;5052438;28;20673;-59
2023/01/30 05:38:25;;;;;;;23.93;3.13;;;7.10;99.90;;;;;;5051670;28;20295;-58
2023/01/30 05:41:02;;;;;;;20.93;2.80;;;7.10;99.90;;;;;;5051949;28;20196;-58
2023/01/30 05:43:29;;;;;;;22.63;2.37;;;7.10;99.90;;;;;;5041696;28;20313;-58
2023/01/30 05:45:56;;;;;;;28.03;3.20;;;7.20;99.90;;;;;;5051998;28;20212;-58
2023/01/30 05:48:23;;;;;;;19.80;3.37;;;7.20;99.90;;;;;;5052065;28;20181;-58
2023/01/30 05:50:50;;;;;;;22.67;2.67;;;7.20;99.90;;;;;;5051866;28;20248;-58
2023/01/30 05:53:16;;;;;;;24.67;3.17;;;7.30;99.90;;;;;;5051885;28;20545;-58
2023/01/30 05:55:42;;;;;;;22.53;3.17;;;7.50;99.90;;;;;;5051979;28;20182;-58
2023/01/30 05:58:08;;;;;;;28.53;3.73;;;7.20;99.90;;;;;;5051735;28;20209;-58
2023/01/30 06:00:34;;;;;;;19.90;2.80;;;7.20;99.90;;;;;;5051730;28;20173;-58
2023/01/30 06:03:00;;;;;;;19.73;2.70;;;7.10;99.90;;;;;;5051972;28;20666;-58
2023/01/30 06:05:25;;;;;;;17.23;2.97;;;7.10;99.90;;;;;;5051662;28;20704;-58
2023/01/30 06:07:51;;;;;;;14.40;2.53;;;7.20;99.90;;;;;;5051936;28;20247;-58
2023/01/30 06:10:17;;;;;;;19.83;2.73;;;7.20;99.90;;;;;;5051705;28;20263;-58
2023/01/30 06:12:43;;;;;;;26.37;2.97;;;;;;;;;;5044267;28;20205;-58
2023/01/30 06:15:09;;;;;;;26.87;2.57;;;7.10;99.90;;;;;;5051174;28;20572;-60
2023/01/30 06:17:35;;;;;;;24.20;3.10;;;7.30;99.90;;;;;;5051458;28;20205;-59
2023/01/30 06:20:00;;;;;;;20.50;2.97;;;7.10;99.90;;;;;;5051486;28;20184;-59
2023/01/30 06:22:26;;;;;;;16.20;2.33;;;7.20;99.90;;;;;;5051528;28;20177;-59
2023/01/30 06:24:52;;;;;;;20.77;2.67;;;7.10;99.90;;;;;;5051521;28;20177;-59
2023/01/30 06:27:18;;;;;;;22.83;3.37;;;7.20;99.90;;;;;;5050302;28;20189;-59
2023/01/30 06:29:43;;;;;;;26.27;3.07;;;7.10;99.90;;;;;;5051068;28;20176;-59
2023/01/30 06:32:09;;;;;;;26.50;3.03;;;7.10;99.90;;;;;;5051253;28;20173;-59
2023/01/30 06:34:35;;;;;;;22.00;3.00;;;7.10;99.90;;;;;;5051143;28;20285;-59
2023/01/30 06:37:01;;;;;;;20.87;2.77;;;7.20;99.90;;;;;;5051042;28;20263;-59
2023/01/30 06:39:26;;;;;;;20.77;2.80;;;7.20;99.90;;;;;;5033514;28;20182;-59
2023/01/30 06:41:52;;;;;;;21.03;2.70;;;7.20;99.90;;;;;;5051431;28;20169;-58
2023/01/30 06:44:18;;;;;;;22.70;2.60;;;7.20;99.90;;;;;;5051430;28;20652;-56
2023/01/30 06:46:43;;;;;;;15.90;3.13;;;7.20;99.90;;;;;;5051127;28;20193;-59
2023/01/30 06:49:09;;;;;;;21.97;3.23;;;7.20;99.90;;;;;;5051232;28;20611;-59
2023/01/30 06:51:34;;;;;;;22.33;2.90;;;7.20;99.90;;;;;;5050661;28;20192;-58
2023/01/30 06:54:00;;;;;;;14.17;2.53;;;7.20;99.90;;;;;;5051322;28;20177;-59
2023/01/30 06:56:26;;;;;;;15.23;2.50;;;7.10;99.90;;;;;;5050785;28;20204;-59
2023/01/30 06:58:51;;;;;;;24.10;3.23;;;7.10;99.90;;;;;;5031372;28;20358;-59
2023/01/30 07:01:18;;;;;;;21.90;2.37;;;7.20;99.90;;;;;;5050484;28;20205;-58
2023/01/30 07:03:43;;;;;;;22.53;2.93;;;7.20;99.90;;;;;;5051202;28;20192;-59
2023/01/30 07:06:09;;;;;;;22.27;3.47;;;7.10;99.90;;;;;;5050354;28;20177;-58
2023/01/30 07:08:35;;;;;;;18.40;2.00;;;7.20;99.90;;;;;;5050683;28;20282;-59
2023/01/30 07:11:03;;;;;;;16.20;3.17;;;7.20;99.90;;;;;;5046240;28;20195;-58
2023/01/30 07:13:28;;;;;;;17.83;2.70;;;7.60;99.90;;;;;;5047750;28;20201;-61
2023/01/30 07:15:54;;;;;;;15.43;2.10;;;7.20;99.90;;;;;;5030129;28;20243;-60
2023/01/30 07:18:20;;;;;;;37.23;2.70;;;7.20;99.90;;;;;;5049782;28;20258;-60
2023/01/30 07:20:47;;;;;;;16.60;2.77;;;7.20;99.90;;;;;;5032426;28;20173;-60
2023/01/30 07:23:13;;;;;;;22.83;2.93;;;;;;;;;;5050400;28;20176;-60
2023/01/30 07:25:38;;;;;;;30.17;2.57;;;7.20;99.90;;;;;;5050502;28;20180;-60
2023/01/30 07:28:04;;;;;;;10.03;2.13;;;7.20;99.90;;;;;;5050201;28;20177;-60
2023/01/30 07:30:34;;;;;;;18.43;2.97;;;7.20;99.90;;;;;;5049923;28;20173;-58
2023/01/30 07:33:01;;;;;;;23.17;3.33;;;7.20;99.90;;;;;;5049090;28;20227;-59
2023/01/30 07:35:29;;;;;;;22.07;2.90;;;7.20;99.90;;;;;;5050349;28;20180;-57
2023/01/30 07:37:55;;;;;;;19.70;2.60;;;7.20;99.90;;;;;;5050400;28;20204;-58
2023/01/30 07:40:21;;;;;;;23.23;3.30;;;7.20;99.90;;;;;;5050299;28;20315;-58
2023/01/30 07:42:58;;;;;;;22.10;2.77;;;7.20;99.90;;;;;;5030588;28;20176;-58
2023/01/30 07:45:24;;;;;;;20.63;3.00;;;7.20;99.90;;;;;;5030504;28;20165;-58
2023/01/30 07:47:49;;;;;;;30.50;2.90;;;7.10;99.90;;;;;;5030393;28;20169;-59
2023/01/30 07:50:15;;;;;;;19.17;2.43;;;7.30;99.90;;;;;;5030454;28;20174;-58
2023/01/30 07:52:41;;;;;;;21.20;2.77;;;7.10;99.90;;;;;;5038934;28;20177;-58
2023/01/30 07:55:07;;;;;;;17.47;2.57;;;7.20;99.90;;;;;;5049702;28;20224;-58
2023/01/30 07:57:32;;;;;;;13.90;2.03;;;7.10;99.90;;;;;;5050017;28;20321;-58
2023/01/30 07:59:58;;;;;;;19.80;2.90;;;7.10;99.90;;;;;;5050314;28;20173;-56
2023/01/30 08:02:24;;;;;;;17.37;2.63;;;7.10;99.90;;;;;;5049615;28;20260;-56
2023/01/30 08:04:49;;;;;;;11.83;2.40;;;7.00;99.90;;;;;;5050188;28;20573;-58
2023/01/30 08:07:15;;;;;;;21.40;2.93;;;7.10;99.90;;;;;;5042626;28;20584;-58
2023/01/30 08:09:40;;;;;;;16.53;3.00;;;7.00;99.90;;;;;;5049562;28;20582;-58
2023/01/30 08:12:06;;;;;;;17.83;2.50;;;7.10;99.90;;;;;;5049832;28;20226;-58
2023/01/30 08:14:32;;;;;;;19.00;2.23;;;7.00;99.90;;;;;;5049476;28;20184;-58
2023/01/30 08:16:57;;;;;;;26.70;3.53;;;6.90;99.90;;;;;;5030124;28;20174;-58
2023/01/30 08:19:23;;;;;;;18.73;2.20;;;7.00;99.90;;;;;;5036531;28;20243;-57
2023/01/30 08:21:49;;;;;;;18.23;2.43;;;7.00;99.90;;;;;;5050007;28;20511;-57
2023/01/30 08:24:14;;;;;;;14.30;2.13;;;6.90;99.90;;;;;;5049872;28;20177;-57
2023/01/30 08:26:40;;;;;;;16.23;2.63;;;7.20;99.90;;;;;;5049462;28;20192;-57
2023/01/30 08:29:05;;;;;;;13.87;2.40;;;8.80;99.90;;;;;;5049972;28;20241;-57
2023/01/30 08:31:31;;;;;;;18.73;2.70;;;7.30;99.90;;;;;;5032036;28;20169;-57
2023/01/30 08:33:57;;;;;;;20.57;2.73;;;7.50;99.90;;;;;;5048910;28;20707;-60
2023/01/30 08:36:22;;;;;;;16.07;2.43;;;7.80;99.90;;;;;;5049706;28;20223;-59
2023/01/30 08:38:48;;;;;;;16.93;2.57;;;8.30;99.90;;;;;;5049760;28;20213;-59
2023/01/30 08:41:14;;;;;;;18.40;2.13;;;8.30;99.90;;;;;;5049816;28;20687;-59
2023/01/30 08:43:39;;;;;;;23.10;2.73;;;8.20;99.90;;;;;;5050131;28;20269;-59
2023/01/30 08:46:05;;;;;;;21.40;2.77;;;8.20;99.90;;;;;;5049450;28;20248;-59
2023/01/30 08:48:31;;;;;;;19.97;2.83;;;;;;;;;;5049709;28;20169;-59
2023/01/30 08:50:57;;;;;;;14.90;2.77;;;8.80;99.90;;;;;;5052175;28;20536;-58
2023/01/30 08:53:23;;;;;;;15.90;2.70;;;;;;;;;;5053191;28;20184;-58
2023/01/30 08:55:51;;;;;;;19.50;2.83;;;8.90;99.90;;;;;;5052965;28;20580;-58
2023/01/30 08:58:16;;;;;;;27.50;3.10;;;8.90;99.90;;;;;;5053220;28;20547;-57
2023/01/30 09:00:43;;;;;;;18.83;2.63;;;9.20;99.90;;;;;;5052403;28;20177;-57
2023/01/30 09:03:10;;;;;;;16.43;3.03;;;8.90;99.90;;;;;;5046536;28;20196;-57
2023/01/30 09:05:36;;;;;;;19.27;3.13;;;8.70;99.90;;;;;;5053031;28;20169;-57
2023/01/30 09:08:02;;;;;;;13.33;3.30;;;8.40;99.90;;;;;;5052827;28;20694;-59
2023/01/30 09:10:28;;;;;;;20.10;3.07;;;8.90;99.90;;;;;;5053051;28;20166;-58
2023/01/30 09:12:54;;;;;;;23.00;3.47;;;8.50;99.90;;;;;;5053247;28;20185;-59
2023/01/30 09:15:19;;;;;;;22.33;2.77;;;8.10;99.90;;;;;;5052587;28;20632;-57
2023/01/30 09:17:45;;;;;;;16.37;2.20;;;8.40;99.90;;;;;;5052605;28;20647;-57
2023/01/30 09:20:11;;;;;;;23.43;3.33;;;9.00;99.90;;;;;;5052334;28;20182;-57
2023/01/30 09:22:37;;;;;;;20.47;3.23;;;9.00;99.90;;;;;;5051885;28;20272;-57
2023/01/30 09:25:04;;;;;;;18.27;2.30;;;9.20;99.90;;;;;;5052726;28;20261;-57
2023/01/30 09:27:29;;;;;;;19.63;2.50;;;9.40;99.90;;;;;;5053007;28;20176;-57
2023/01/30 09:29:55;;;;;;;25.47;2.60;;;10.10;99.90;;;;;;5052707;28;20239;-57
2023/01/30 09:32:21;;;;;;;19.37;2.67;;;10.40;99.90;;;;;;5052282;28;20177;-57
2023/01/30 09:34:46;;;;;;;15.97;2.73;;;10.20;99.90;;;;;;5052593;28;20217;-57
2023/01/30 09:37:12;;;;;;;26.23;3.63;;;10.20;99.90;;;;;;5052378;28;20605;-57
2023/01/30 09:39:38;;;;;;;16.83;2.97;;;10.40;99.90;;;;;;5051888;28;20231;-58
2023/01/30 09:42:03;;;;;;;16.60;2.23;;;11.00;99.90;;;;;;5052504;28;20623;-58
2023/01/30 09:44:56;;;;;;;16.00;2.90;;;10.90;99.90;;;;;;5052390;28;20170;-58
2023/01/30 09:47:37;;;;;;;18.90;3.33;;;10.60;99.90;;;;;;5052585;28;20177;-58
2023/01/30 09:50:40;;;;;;;27.93;3.43;;;10.70;99.90;;;;;;5034763;28;20162;-58
2023/01/30 09:53:27;;;;;;;22.07;3.03;;;10.90;99.90;;;;;;5052239;28;20175;-58
2023/01/30 09:55:53;;;;;;;16.27;2.63;;;11.60;99.90;;;;;;5052297;28;20640;-58
2023/01/30 09:58:21;;;;;;;18.27;2.67;;;11.80;99.90;;;;;;5051834;28;20205;-58
2023/01/30 10:00:50;;;;;;;20.23;3.00;;;11.60;99.90;;;;;;5050805;28;20177;-58
2023/01/30 10:03:54;;;;;;;21.80;2.93;;;11.60;99.90;;;;;;5045956;28;20250;-60
2023/01/30 10:06:19;;;;;;;18.07;2.93;;;11.50;99.90;;;;;;4951218;29;20188;-60
2023/01/30 10:09:10;;;;;;;24.37;2.87;;;11.30;99.90;;;;;;5000366;28;20556;-60
2023/01/30 10:11:48;;;;;;;22.23;3.23;;;11.10;99.90;;;;;;5030039;28;20699;-60
2023/01/30 10:14:14;;;;;;;19.43;2.93;;;10.20;99.90;;;;;;5030449;28;20224;-60
2023/01/30 10:17:00;;;;;;;19.10;3.30;;;10.90;99.90;;;;;;5030095;28;20640;-60
2023/01/30 10:19:31;;;;;;;22.17;2.90;;;11.00;99.90;;;;;;5029928;28;20188;-61
2023/01/30 10:22:17;;;;;;;22.43;3.43;;;11.10;99.90;;;;;;5029912;28;20220;-61
2023/01/30 10:25:14;;;;;;;17.90;2.80;;;11.20;99.90;;;;;;5032042;28;20200;-61
2023/01/30 10:27:57;;;;;;;13.63;2.60;;;11.90;99.90;;;;;;5003431;28;20679;-61
2023/01/30 10:30:24;;;;;;;13.37;3.10;;;11.50;99.90;;;;;;5031793;28;20246;-61
2023/01/30 10:33:14;;;;;;;17.53;3.00;;;11.70;99.90;;;;;;5031463;28;20172;-61
2023/01/30 10:35:41;;;;;;;24.60;3.23;;;11.70;99.90;;;;;;5031597;28;20178;-61
2023/01/30 10:38:25;;;;;;;19.40;2.73;;;12.00;99.90;;;;;;5031619;28;20225;-62
2023/01/30 10:40:59;;;;;;;23.30;3.23;;;11.90;99.90;;;;;;5031619;28;20174;-61
2023/01/30 10:43:37;;;;;;;14.60;2.57;;;12.20;99.90;;;;;;5031456;28;20643;-62
2023/01/30 10:46:38;;;;;;;28.93;3.23;;;12.30;99.90;;;;;;5014341;28;20173;-61
2023/01/30 10:49:16;;;;;;;15.07;2.60;;;12.30;99.90;;;;;;5020391;28;20210;-61
2023/01/30 10:51:46;;;;;;;30.20;3.73;;;12.90;99.90;;;;;;5031279;28;20173;-61
2023/01/30 10:54:32;;;;;;;32.37;4.03;;;12.90;99.90;;;;;;5024899;28;20808;-61
2023/01/30 10:57:36;;;;;;;18.98;2.60;;;12.30;99.90;;;;;;5031283;28;20177;-61
2023/01/30 11:00:23;;;;;;;10.63;2.33;;;13.70;99.90;;;;;;5034712;28;20213;-61
2023/01/30 11:03:27;;;;;;;25.97;3.50;;;13.60;99.90;;;;;;5031044;28;20223;-61
2023/01/30 11:06:02;;;;;;;22.87;3.30;;;15.10;99.90;;;;;;4950766;29;20738;-61
2023/01/30 11:08:32;;;;;;;18.00;3.55;;;15.00;99.90;;;;;;5021166;28;20188;-61
2023/01/30 11:10:57;;;;;;;26.98;4.15;;;15.10;99.90;;;;;;5029989;28;20552;-61
2023/01/30 11:13:33;;;;;;;19.67;2.72;;;15.20;99.90;;;;;;5030494;28;20185;-61
2023/01/30 11:16:09;;;;;;;17.15;3.03;;;15.80;99.90;;;;;;5029699;28;20636;-61
2023/01/30 11:18:47;;;;;;;19.25;3.05;;;15.50;99.90;;;;;;5030938;28;20202;-61
2023/01/30 11:21:23;;;;;;;25.25;4.03;;;15.80;99.90;;;;;;5037718;28;20176;-61
2023/01/30 11:23:50;;;;;;;23.08;3.65;;;17.10;99.90;;;;;;5050525;28;20717;-61
2023/01/30 11:26:28;;;;;;;19.10;4.28;;;16.90;99.90;;;;;;5032863;28;20659;-61
2023/01/30 11:28:54;;;;;;;13.63;3.38;;;18.80;99.90;;;;;;5032760;28;20492;-61
2023/01/30 11:31:29;;;;;;;14.63;3.65;;;19.10;99.90;;;;;;5049670;28;20181;-61
2023/01/30 11:34:04;;;;;;;15.70;3.33;;;19.60;99.90;;;;;;5050278;28;20216;-61
2023/01/30 11:36:32;;;;;;;20.60;3.72;;;18.30;99.90;;;;;;5031999;28;20550;-61
2023/01/30 11:39:21;;;;;;;19.50;3.75;;;19.40;99.90;;;;;;5050555;28;20205;-61
2023/01/30 11:41:56;;;;;;;15.45;3.30;;;18.60;99.90;;;;;;5050509;28;20274;-61
2023/01/30 11:44:26;;;;;;;17.10;3.63;;;18.90;99.90;;;;;;5048072;28;20180;-62
2023/01/30 11:46:52;;;;;;;16.25;3.00;;;18.30;99.90;;;;;;5050015;28;20268;-61
2023/01/30 11:49:20;;;;;;;13.70;2.97;;;17.40;99.90;;;;;;5025869;28;20264;-62
2023/01/30 11:51:50;;;;;;;18.23;3.20;;;18.00;99.90;;;;;;5032002;28;20235;-61
2023/01/30 11:54:26;;;;;;;20.02;3.05;;;18.90;99.90;;;;;;5030528;28;20625;-62
2023/01/30 11:56:55;;;;;;;13.52;3.35;;;20.30;99.90;;;;;;5046250;28;20188;-61
2023/01/30 11:59:29;;;;;;;16.00;2.80;;;21.20;99.90;;;;;;5032493;28;20197;-61
2023/01/30 12:02:22;;;;;;;13.52;3.05;;;22.10;99.00;;;;;;5050168;28;20188;-62
2023/01/30 12:04:52;;;;;;;14.13;3.13;;;22.20;94.20;;;;;;5050377;28;20211;-61
2023/01/30 12:07:34;;;;;;;17.23;3.58;;;20.50;92.60;;;;;;5050390;28;20240;-62
2023/01/30 12:09:59;;;;;;;11.82;2.92;;;22.10;94.20;;;;;;5050225;28;20218;-61
2023/01/30 12:12:50;;;;;;;15.63;3.67;;;22.60;82.20;;;;;;5050078;28;20264;-60
2023/01/30 12:15:26;;;;;;;16.23;3.10;;;22.70;78.40;;;;;;5049821;28;20184;-60
2023/01/30 12:18:26;;;;;;;14.15;3.42;;;23.70;64.20;;;;;;5049699;28;20227;-60
2023/01/30 12:20:59;;;;;;;14.60;3.42;;;24.40;49.10;;;;;;5049344;28;20644;-60
2023/01/30 12:23:33;;;;;;;25.42;4.00;;;24.20;42.10;;;;;;5050189;28;20181;-60
2023/01/30 12:26:09;;;;;;;30.08;4.45;;;24.50;36.00;;;;;;5052507;28;20218;-61
2023/01/30 12:28:55;;;;;;;20.77;4.00;;;24.30;32.90;;;;;;5053454;28;20264;-60
2023/01/30 12:32:01;;;;;;;18.33;3.25;;;24.70;24.90;;;;;;5053210;28;20590;-60
2023/01/30 12:34:26;;;;;;;15.45;3.15;;;24.50;24.60;;;;;;5012574;28;20216;-60
2023/01/30 12:37:29;;;;;;;20.38;4.35;;;23.20;21.90;;;;;;5035667;28;20551;-60
2023/01/30 12:39:58;;;;;;;13.02;4.15;;;21.40;27.00;;;;;;5053924;28;20272;-60
2023/01/30 12:42:30;;;;;;;23.08;3.92;;;22.00;25.70;;;;;;5053661;28;20173;-60
2023/01/30 12:45:17;;;;;;;19.00;3.88;;;22.30;27.40;;;;;;5050089;28;20179;-60
2023/01/30 12:47:54;;;;;;;17.55;3.60;;;23.80;23.30;;;;;;5031672;28;20255;-60
2023/01/30 12:50:42;;;;;;;23.55;6.97;;;22.00;16.00;;;;;;5035572;28;20181;-60
2023/01/30 12:53:14;;;;;;;17.70;5.03;;;18.20;26.40;;;;;;5053530;28;20169;-60
2023/01/30 12:55:58;;;;;;;26.27;7.95;;;16.70;55.00;;;;;;5053609;28;20293;-60
2023/01/30 12:58:23;;;;;;;22.35;5.55;;;15.70;98.20;;;;;;5053360;28;20204;-59
2023/01/30 13:01:28;;;;;;;26.33;4.65;;;15.10;99.90;;;;;;5053303;28;20215;-59
2023/01/30 13:04:24;;;;;;;21.20;6.70;;;14.70;99.90;;;;;;5049681;28;20635;-59
2023/01/30 13:07:17;;;;;;;23.17;7.00;;;13.90;99.90;;;;;;5053325;28;20177;-59
2023/01/30 13:10:12;;;;;;;27.38;6.47;;;13.50;99.90;;;;;;5053263;28;20177;-59
2023/01/30 13:12:57;;;;;;;21.65;7.72;;;13.40;99.90;;;;;;5053184;28;20176;-59